Time;durP1;ratioP1;P1;durP2;ratioP2;P2;SDS_P1;SDS_P2;PMS_P1;PMS_P2;Temp;Humidity;BMP_temperature;BMP_pressure;BME280_temperature;BME280_humidity;BME280_pressure;Samples;Min_cycle;Max_cycle;Signal;HPM_P1;HPM_P2
2023/04/29 00:00:36;;;;;;;27.27;22.03;;;12.60;99.90;;;12.04;87.76;100347.81;5096092;28;20260;-73
2023/04/29 00:03:08;;;;;;;26.83;22.03;;;12.60;99.90;;;11.99;87.58;100344.81;5096390;28;20196;-73
2023/04/29 00:05:40;;;;;;;29.70;23.17;;;12.50;99.90;;;11.94;87.60;100353.44;5096117;28;20219;-73
2023/04/29 00:08:12;;;;;;;30.57;23.97;;;12.50;99.90;;;11.95;87.20;100344.34;5096203;28;20218;-73
2023/04/29 00:10:45;;;;;;;33.30;26.63;;;12.50;99.90;;;11.93;88.14;100345.53;5096262;28;20197;-73
2023/04/29 00:13:17;;;;;;;34.83;25.43;;;12.50;99.90;;;11.94;88.19;100341.84;5096050;28;20193;-73
2023/04/29 00:15:49;;;;;;;30.87;23.77;;;12.50;99.90;;;11.97;87.16;100341.50;5095798;28;20185;-73
2023/04/29 00:18:21;;;;;;;30.70;25.23;;;12.50;99.90;;;12.00;87.01;100346.50;5095759;28;20708;-73
2023/04/29 00:20:53;;;;;;;34.80;26.93;;;12.50;99.90;;;11.95;87.58;100338.16;5096042;28;20192;-73
2023/04/29 00:23:25;;;;;;;38.07;27.27;;;12.50;99.90;;;11.94;87.26;100341.84;5095958;28;20214;-73
2023/04/29 00:25:58;;;;;;;36.70;28.10;;;12.50;99.90;;;11.92;87.22;100341.19;5095881;28;20209;-73
2023/04/29 00:28:30;;;;;;;38.60;29.67;;;12.50;99.90;;;11.90;87.20;100340.53;5095555;28;20232;-73
2023/04/29 00:31:02;;;;;;;40.10;29.50;;;12.40;99.90;;;11.87;87.83;100340.91;5095903;28;20193;-73
2023/04/29 00:33:34;;;;;;;39.17;29.27;;;12.40;99.90;;;11.84;87.61;100338.56;5095854;28;20197;-73
2023/04/29 00:36:06;;;;;;;35.80;26.87;;;12.40;99.90;;;11.84;87.58;100347.47;5095743;28;20193;-73
2023/04/29 00:38:38;;;;;;;41.63;29.53;;;12.40;99.90;;;11.84;87.46;100358.19;5095669;28;20224;-73
2023/04/29 00:41:11;;;;;;;38.73;29.27;;;12.40;99.90;;;11.88;86.44;100345.25;5095308;28;20633;-73
2023/04/29 00:43:43;;;;;;;43.17;30.57;;;12.40;99.90;;;11.89;87.21;100349.59;5095617;28;20207;-73
2023/04/29 00:46:15;;;;;;;40.90;29.47;;;12.40;99.90;;;11.88;87.25;100342.56;5095515;28;20219;-73
2023/04/29 00:48:47;;;;;;;44.90;31.20;;;12.40;99.90;;;11.83;87.65;100353.00;5095477;28;20229;-73
2023/04/29 00:51:20;;;;;;;49.83;32.93;;;12.40;99.90;;;11.79;87.25;100357.03;5095122;28;20699;-73
2023/04/29 00:53:52;;;;;;;48.07;33.10;;;12.40;99.90;;;11.77;87.19;100364.44;5095400;28;20197;-73
2023/04/29 00:56:26;;;;;;;48.70;34.70;;;12.30;99.90;;;11.79;86.92;100365.06;5095069;28;20561;-73
2023/04/29 00:58:58;;;;;;;55.30;37.30;;;12.40;99.90;;;11.76;87.64;100360.06;5094851;28;20735;-73
2023/04/29 01:01:30;;;;;;;62.10;41.13;;;12.30;99.90;;;11.68;88.11;100379.69;5096108;28;20563;-73
2023/04/29 01:04:02;;;;;;;64.17;41.37;;;12.20;99.90;;;11.71;87.83;100367.81;5094949;28;20732;-73
2023/04/29 01:06:49;;;;;;;57.33;39.03;;;12.30;99.90;;;11.66;87.84;100374.53;5094802;28;20642;-73
2023/04/29 01:09:40;;;;;;;56.27;38.63;;;12.20;99.90;;;11.67;88.22;100370.84;5094786;28;20598;-73
2023/04/29 01:12:21;;;;;;;56.77;37.03;;;12.20;99.90;;;11.67;87.94;100378.88;5095209;28;20191;-73
2023/04/29 01:15:04;;;;;;;59.87;38.70;;;12.30;99.90;;;11.69;87.70;100384.03;5095046;28;20667;-73
2023/04/29 01:17:44;;;;;;;63.13;38.57;;;12.30;99.90;;;11.63;88.77;100382.06;5095012;28;20215;-73
2023/04/29 01:20:17;;;;;;;55.80;36.53;;;12.20;99.90;;;11.61;89.16;100387.59;5094982;28;20236;-73
2023/04/29 01:22:49;;;;;;;56.40;36.57;;;12.20;99.90;;;11.49;89.39;100380.97;5095029;28;20189;-73
2023/04/29 01:25:22;;;;;;;57.50;36.87;;;12.10;99.90;;;11.48;89.77;100384.66;5094752;28;20220;-73
2023/04/29 01:28:14;;;;;;;54.47;34.13;;;12.10;99.90;;;11.44;89.78;100380.66;5094310;28;20200;-73
2023/04/29 01:31:00;;;;;;;49.73;32.03;;;12.00;99.90;;;11.48;90.10;100379.28;5094751;28;20197;-73
2023/04/29 01:33:47;;;;;;;53.50;33.77;;;12.00;99.90;;;11.41;90.29;100383.69;5096362;28;20188;-73
2023/04/29 01:36:34;;;;;;;57.13;32.90;;;12.00;99.90;;;11.43;90.28;100392.41;5096114;28;20196;-73
2023/04/29 01:39:16;;;;;;;53.97;33.90;;;12.00;99.90;;;11.39;91.12;100396.44;5095427;28;20236;-73
2023/04/29 01:42:05;;;;;;;54.90;33.77;;;11.90;99.90;;;11.40;90.81;100390.06;5095567;28;20192;-73
2023/04/29 01:44:41;;;;;;;48.47;32.17;;;12.00;99.90;;;11.40;90.69;100394.59;5096142;28;20192;-72
2023/04/29 01:47:16;;;;;;;46.93;30.87;;;11.90;99.90;;;11.34;90.88;100397.94;5095743;28;20189;-72
2023/04/29 01:49:48;;;;;;;45.27;29.47;;;11.90;99.90;;;11.34;91.18;100408.66;5094405;28;20228;-72
2023/04/29 01:52:22;;;;;;;49.10;31.10;;;11.90;99.90;;;11.23;92.05;100409.06;5094073;28;20224;-73
2023/04/29 01:54:53;;;;;;;47.53;31.73;;;11.80;99.90;;;11.21;91.91;100411.91;5094465;28;20189;-73
2023/04/29 01:57:26;;;;;;;50.80;31.47;;;11.80;99.90;;;11.21;92.23;100419.94;5095164;28;20227;-73
2023/04/29 01:59:58;;;;;;;43.57;29.53;;;11.80;99.90;;;11.23;91.96;100417.94;5093953;28;20229;-73
2023/04/29 02:02:30;;;;;;;43.47;28.53;;;11.80;99.90;;;11.22;91.67;100420.78;5094291;28;20599;-73
2023/04/29 02:05:02;;;;;;;45.27;29.83;;;11.80;99.90;;;11.28;91.58;100420.09;5093880;28;20596;-73
2023/04/29 02:07:34;;;;;;;41.57;28.93;;;11.80;99.90;;;11.21;91.92;100419.94;5094094;28;20602;-72
2023/04/29 02:10:07;;;;;;;45.50;30.73;;;11.80;99.90;;;11.20;92.71;100428.97;5094264;28;20229;-73
2023/04/29 02:12:40;;;;;;;47.40;30.27;;;11.80;99.90;;;11.16;92.63;100430.34;5094133;28;20200;-73
2023/04/29 02:15:13;;;;;;;46.63;30.43;;;11.70;99.90;;;11.15;92.51;100436.72;5093769;28;20664;-73
2023/04/29 02:17:46;;;;;;;44.03;29.73;;;11.70;99.90;;;11.18;92.33;100434.53;5094068;28;20185;-73
2023/04/29 02:20:18;;;;;;;46.53;31.10;;;11.70;99.90;;;11.21;91.90;100441.38;5093910;28;20225;-73
2023/04/29 02:22:50;;;;;;;45.13;30.23;;;11.80;99.90;;;11.15;92.74;100434.88;5093998;28;20208;-73
2023/04/29 02:25:22;;;;;;;47.73;29.77;;;11.70;99.90;;;11.19;92.59;100448.75;5094554;28;20224;-73
2023/04/29 02:27:55;;;;;;;41.67;28.93;;;11.70;99.90;;;11.26;92.52;100452.44;5093597;28;20662;-73
2023/04/29 02:30:29;;;;;;;38.33;28.50;;;11.80;99.90;;;11.23;92.27;100459.97;5093572;28;20645;-74
2023/04/29 02:33:01;;;;;;;39.40;30.57;;;11.80;99.90;;;11.28;91.08;100460.28;5093839;28;20192;-73
2023/04/29 02:35:32;;;;;;;45.70;32.57;;;11.80;99.90;;;11.23;90.53;100466.19;5093753;28;20185;-73
2023/04/29 02:38:06;;;;;;;39.13;30.03;;;11.80;99.90;;;11.24;90.92;100466.97;5093753;28;20189;-73
2023/04/29 02:40:43;;;;;;;42.13;31.97;;;11.80;99.90;;;11.12;91.12;100469.22;5093740;28;20204;-73
2023/04/29 02:43:17;;;;;;;42.50;29.70;;;11.70;99.90;;;11.12;90.36;100471.88;5093717;28;20193;-73
2023/04/29 02:45:48;;;;;;;42.70;31.17;;;11.70;99.90;;;11.16;90.61;100481.25;5093314;28;20213;-73
2023/04/29 02:48:20;;;;;;;37.77;28.87;;;11.70;99.90;;;11.11;90.52;100480.91;5092988;28;20229;-73
2023/04/29 02:50:52;;;;;;;38.27;29.50;;;11.70;99.90;;;11.10;89.78;100481.91;5093602;28;20196;-73
2023/04/29 02:53:24;;;;;;;40.20;29.43;;;11.70;99.90;;;11.07;90.48;100483.09;5093050;28;20185;-73
2023/04/29 02:55:56;;;;;;;38.37;28.77;;;11.60;99.90;;;11.04;90.51;100478.09;5092123;28;20192;-73
2023/04/29 02:58:31;;;;;;;36.70;28.87;;;11.60;99.90;;;11.07;89.83;100485.78;5093850;28;20236;-73
2023/04/29 03:01:03;;;;;;;35.40;26.23;;;11.60;99.90;;;11.07;89.78;100490.28;5093267;28;20660;-73
2023/04/29 03:03:35;;;;;;;35.33;27.30;;;11.60;99.90;;;11.06;89.27;100489.44;5093514;28;20215;-73
2023/04/29 03:06:07;;;;;;;33.13;26.53;;;11.60;99.90;;;11.05;89.15;100486.97;5093480;28;20219;-73
2023/04/29 03:08:39;;;;;;;33.00;25.83;;;11.60;99.90;;;11.04;89.23;100496.00;5093276;28;20225;-73
2023/04/29 03:11:11;;;;;;;28.57;23.67;;;11.60;99.90;;;11.05;88.83;100497.69;5093441;28;20189;-73
2023/04/29 03:13:44;;;;;;;27.37;23.33;;;11.60;99.90;;;11.00;88.74;100491.97;5093430;28;20195;-73
2023/04/29 03:16:16;;;;;;;25.80;22.27;;;11.50;99.90;;;10.97;88.58;100503.03;5093088;28;20189;-73
2023/04/29 03:18:48;;;;;;;24.97;21.77;;;11.50;99.90;;;10.90;88.38;100494.84;5093020;28;20744;-73
2023/04/29 03:21:20;;;;;;;24.63;21.10;;;11.50;99.90;;;10.89;87.89;100501.19;5093059;28;20551;-73
2023/04/29 03:23:52;;;;;;;25.40;22.70;;;11.40;99.90;;;10.81;88.78;100500.38;5093005;28;20614;-73
2023/04/29 03:26:24;;;;;;;25.50;22.37;;;11.40;99.90;;;10.71;88.57;100511.25;5093256;28;20212;-73
2023/04/29 03:28:58;;;;;;;25.70;22.87;;;11.30;99.90;;;10.71;88.66;100503.22;5092833;28;20239;-73
2023/04/29 03:31:30;;;;;;;25.50;22.80;;;11.30;99.90;;;10.72;88.08;100512.91;5093258;28;20189;-73
2023/04/29 03:34:03;;;;;;;25.97;23.27;;;11.30;99.90;;;10.71;88.66;100513.94;5092853;28;20688;-73
2023/04/29 03:36:36;;;;;;;26.20;23.43;;;11.30;99.90;;;10.56;88.78;100519.09;5093206;28;20208;-73
2023/04/29 03:39:08;;;;;;;26.03;23.43;;;11.20;99.90;;;10.62;88.43;100526.44;5092769;28;20729;-73
2023/04/29 03:41:40;;;;;;;26.20;23.50;;;11.20;99.90;;;10.63;87.97;100529.97;5093160;28;20189;-73
2023/04/29 03:44:13;;;;;;;26.47;23.67;;;11.20;99.90;;;10.68;87.36;100522.28;5092824;28;20554;-73
2023/04/29 03:46:45;;;;;;;26.77;23.87;;;11.20;99.90;;;10.65;87.48;100525.31;5092706;28;20689;-73
2023/04/29 03:49:17;;;;;;;27.83;24.83;;;11.20;99.90;;;10.57;87.56;100523.47;5093090;28;20240;-73
2023/04/29 03:51:49;;;;;;;27.73;24.83;;;11.20;99.90;;;10.59;87.67;100526.78;5095581;28;20194;-73
2023/04/29 03:54:21;;;;;;;30.13;26.93;;;11.10;99.90;;;10.51;88.12;100540.16;5096363;28;20204;-72
2023/04/29 03:56:53;;;;;;;30.37;27.17;;;11.10;99.90;;;10.44;88.35;100533.81;5096716;28;20197;-73
2023/04/29 03:59:28;;;;;;;31.53;28.03;;;11.00;99.90;;;10.51;88.41;100542.81;5096388;28;20610;-72
2023/04/29 04:02:00;;;;;;;31.33;27.63;;;11.00;99.90;;;10.52;88.17;100547.19;5096561;28;20201;-72
2023/04/29 04:04:32;;;;;;;31.57;28.20;;;11.00;99.90;;;10.48;88.51;100553.88;5096615;28;20193;-72
2023/04/29 04:07:04;;;;;;;33.60;28.60;;;11.00;99.90;;;10.46;88.96;100555.03;5096464;28;20212;-73
2023/04/29 04:09:36;;;;;;;33.13;29.57;;;11.00;99.90;;;10.49;88.29;100558.22;5096349;28;20220;-73
2023/04/29 04:12:09;;;;;;;32.30;28.43;;;11.00;99.90;;;10.40;88.66;100569.94;5096407;28;20219;-73
2023/04/29 04:14:42;;;;;;;36.13;31.40;;;10.90;99.90;;;10.29;89.52;100575.56;5096402;28;20196;-73
2023/04/29 04:17:14;;;;;;;38.33;31.47;;;10.90;99.90;;;10.33;89.23;100578.75;5096355;28;20189;-73
2023/04/29 04:19:46;;;;;;;36.40;30.83;;;10.90;99.90;;;10.26;89.83;100578.56;5095920;28;20227;-73
2023/04/29 04:22:18;;;;;;;38.47;32.20;;;10.80;99.90;;;10.22;89.72;100592.44;5096311;28;20197;-74
2023/04/29 04:24:50;;;;;;;37.27;31.37;;;10.80;99.90;;;10.25;89.41;100589.44;5096719;28;20204;-73
2023/04/29 04:27:23;;;;;;;37.47;31.80;;;10.80;99.90;;;10.29;88.83;100588.94;5096686;28;20696;-73
2023/04/29 04:29:58;;;;;;;37.83;30.57;;;10.90;99.90;;;10.30;88.67;100596.00;5096946;28;20217;-73
2023/04/29 04:32:31;;;;;;;41.20;34.20;;;10.80;99.90;;;10.29;88.48;100601.50;5096899;28;20206;-73
2023/04/29 04:35:04;;;;;;;44.57;34.67;;;10.90;99.90;;;10.26;88.61;100599.13;5097507;28;20246;-73
2023/04/29 04:37:36;;;;;;;43.47;34.63;;;10.80;99.90;;;10.16;88.94;100609.97;5097303;28;20192;-72
2023/04/29 04:40:10;;;;;;;46.57;35.60;;;10.80;99.90;;;10.19;89.03;100609.66;5096322;28;20228;-73
2023/04/29 04:42:42;;;;;;;47.00;36.67;;;10.70;99.90;;;10.09;89.08;100611.59;5095833;28;20195;-73
2023/04/29 04:45:16;;;;;;;46.80;35.87;;;10.70;99.90;;;10.03;89.55;100621.06;5095781;28;20200;-73
2023/04/29 04:47:48;;;;;;;53.13;38.47;;;10.70;99.90;;;10.07;89.53;100622.44;5095672;28;20247;-73
2023/04/29 04:50:20;;;;;;;46.87;37.20;;;10.70;99.90;;;10.16;88.94;100621.53;5095493;28;20237;-73
2023/04/29 04:52:51;;;;;;;53.70;40.00;;;10.70;99.90;;;10.20;88.33;100621.19;5095673;28;20196;-73
2023/04/29 04:55:23;;;;;;;53.27;39.93;;;10.80;99.90;;;10.16;88.54;100631.38;5095298;28;20663;-73
2023/04/29 04:57:55;;;;;;;56.83;41.13;;;10.70;99.90;;;10.05;89.02;100634.28;5095580;28;20203;-73
2023/04/29 05:00:28;;;;;;;53.13;41.33;;;10.60;99.90;;;10.11;89.00;100639.00;5094650;28;20209;-73
2023/04/29 05:03:00;;;;;;;55.43;42.07;;;10.70;99.90;;;10.07;89.32;100642.97;5094366;28;20189;-73
2023/04/29 05:05:35;;;;;;;57.47;41.40;;;10.60;99.90;;;9.96;89.12;100648.63;5095120;28;20618;-73
2023/04/29 05:08:08;;;;;;;57.77;43.80;;;10.50;99.90;;;9.86;89.86;100655.91;5095132;28;20216;-73
2023/04/29 05:10:40;;;;;;;57.07;43.47;;;10.50;99.90;;;9.81;89.33;100659.06;5095244;28;20188;-73
2023/04/29 05:13:14;;;;;;;59.13;45.23;;;10.50;99.90;;;9.87;89.64;100657.59;5095129;28;20288;-74
2023/04/29 05:15:48;;;;;;;54.50;42.23;;;10.40;99.90;;;9.92;88.98;100668.66;5094848;28;20197;-72
2023/04/29 05:18:19;;;;;;;56.37;42.50;;;10.50;99.90;;;9.92;88.69;100668.66;5095026;28;20229;-72
2023/04/29 05:20:51;;;;;;;53.50;40.93;;;10.50;99.90;;;9.97;88.43;100666.34;5094969;28;20643;-72
2023/04/29 05:23:23;;;;;;;52.93;41.07;;;10.50;99.90;;;9.88;88.86;100670.81;5094962;28;20189;-73
2023/04/29 05:25:55;;;;;;;51.43;39.97;;;10.50;99.90;;;9.82;89.17;100678.63;5095004;28;20185;-72
2023/04/29 05:28:27;;;;;;;50.00;38.37;;;10.40;99.90;;;9.80;88.55;100677.91;5094535;28;20229;-73
2023/04/29 05:31:00;;;;;;;48.63;37.97;;;10.40;99.90;;;9.83;88.63;100678.44;5094870;28;20200;-73
2023/04/29 05:33:32;;;;;;;48.53;39.90;;;10.40;99.90;;;9.92;88.42;100682.03;5094860;28;20243;-73
2023/04/29 05:36:05;;;;;;;50.00;39.87;;;10.50;99.90;;;9.85;88.73;100686.31;5094512;28;20550;-73
2023/04/29 05:38:37;;;;;;;51.20;39.60;;;10.40;99.90;;;9.73;89.18;100692.91;5094674;28;20227;-74
2023/04/29 05:41:09;;;;;;;54.43;40.80;;;10.30;99.90;;;9.77;88.94;100695.13;5094405;28;20570;-73
2023/04/29 05:43:40;;;;;;;57.47;42.60;;;10.40;99.90;;;9.83;88.72;100699.03;5094396;28;20192;-73
2023/04/29 05:46:13;;;;;;;56.23;42.40;;;10.40;99.90;;;9.70;89.56;100704.75;5094660;28;20207;-73
2023/04/29 05:48:45;;;;;;;57.90;41.73;;;10.30;99.90;;;9.69;89.82;100709.25;5094487;28;20232;-73
2023/04/29 05:51:17;;;;;;;56.63;40.40;;;10.30;99.90;;;9.68;89.14;100707.59;5094601;28;20197;-73
2023/04/29 05:53:49;;;;;;;49.90;36.43;;;10.30;99.90;;;9.71;88.77;100717.13;5094461;28;20201;-73
2023/04/29 05:56:21;;;;;;;40.73;32.33;;;10.30;99.90;;;9.76;88.75;100724.72;5094457;28;20192;-73
2023/04/29 05:58:53;;;;;;;36.73;29.43;;;10.30;99.90;;;9.78;88.73;100722.69;5093642;28;20232;-73
2023/04/29 06:01:26;;;;;;;36.57;28.83;;;10.30;99.90;;;9.78;89.11;100720.03;5093703;28;20710;-73
2023/04/29 06:03:58;;;;;;;39.87;31.07;;;10.40;99.90;;;9.70;89.04;100726.16;5094366;28;20185;-72
2023/04/29 06:06:31;;;;;;;36.33;26.93;;;10.30;99.90;;;9.77;88.50;100737.06;5094236;28;20292;-72
2023/04/29 06:09:04;;;;;;;32.07;24.93;;;10.40;99.90;;;9.78;88.49;100733.41;5093968;28;20599;-73
2023/04/29 06:11:47;;;;;;;32.10;26.43;;;10.40;99.90;;;9.73;88.69;100741.03;5094196;28;20284;-73
2023/04/29 06:14:18;;;;;;;33.63;26.47;;;10.30;99.90;;;9.81;88.77;100746.44;5093898;28;20196;-73
2023/04/29 06:16:52;;;;;;;32.70;26.70;;;10.40;99.90;;;9.81;89.01;100749.13;5094140;28;20200;-73
2023/04/29 06:19:24;;;;;;;35.47;28.23;;;10.40;99.90;;;9.89;88.45;100763.41;5094004;28;20312;-73
2023/04/29 06:21:57;;;;;;;39.40;30.40;;;10.50;99.90;;;9.93;88.35;100763.94;5093720;28;20196;-73
2023/04/29 06:24:29;;;;;;;40.23;32.37;;;10.50;99.90;;;9.90;88.65;100764.22;5093791;28;20224;-73
2023/04/29 06:27:03;;;;;;;46.83;35.57;;;10.50;99.90;;;9.93;88.30;100780.81;5093629;28;20189;-73
2023/04/29 06:29:34;;;;;;;44.60;35.00;;;10.50;99.90;;;9.92;89.08;100784.50;5093483;28;20705;-73
2023/04/29 06:32:08;;;;;;;46.20;33.87;;;10.50;99.90;;;9.84;88.57;100791.59;5093729;28;20185;-73
2023/04/29 06:34:40;;;;;;;40.37;31.47;;;10.40;99.90;;;9.87;88.57;100792.13;5093505;28;20702;-73
2023/04/29 06:37:13;;;;;;;37.87;30.63;;;10.50;99.90;;;9.83;88.45;100790.75;5092679;28;20584;-73
2023/04/29 06:39:45;;;;;;;36.80;30.20;;;10.40;99.90;;;9.83;88.54;100795.28;5093041;28;20225;-73
2023/04/29 06:42:19;;;;;;;36.73;28.03;;;10.40;99.90;;;9.81;88.23;100797.25;5093766;28;20185;-73
2023/04/29 06:44:50;;;;;;;35.73;27.57;;;10.40;99.90;;;9.79;88.02;100801.94;5093667;28;20193;-73
2023/04/29 06:47:24;;;;;;;32.63;25.97;;;10.40;99.90;;;9.80;87.62;100800.91;5093296;28;20583;-73
2023/04/29 06:49:56;;;;;;;33.10;26.27;;;10.40;99.90;;;9.85;87.59;100809.31;5093513;28;20235;-73
2023/04/29 06:52:28;;;;;;;29.40;25.17;;;10.50;99.90;;;9.87;87.25;100812.66;5093286;28;20193;-74
2023/04/29 06:55:00;;;;;;;30.80;26.10;;;10.50;99.90;;;9.84;87.39;100829.03;5093125;28;20196;-74
2023/04/29 06:57:32;;;;;;;27.27;23.57;;;10.50;99.90;;;9.85;87.41;100834.25;5093600;28;20283;-73
2023/04/29 07:00:05;;;;;;;29.07;25.10;;;10.50;99.90;;;9.87;87.91;100832.25;5093134;28;20252;-73
2023/04/29 07:02:38;;;;;;;27.77;24.30;;;10.50;99.90;;;9.93;87.28;100838.81;5093489;28;20189;-74
2023/04/29 07:05:12;;;;;;;29.87;24.50;;;10.50;99.90;;;9.94;87.54;100841.31;5093187;28;20609;-73
2023/04/29 07:07:43;;;;;;;28.37;23.90;;;10.60;99.90;;;10.01;87.09;100846.91;5093407;28;20189;-73
2023/04/29 07:10:15;;;;;;;28.20;23.80;;;10.60;99.90;;;10.06;87.03;100845.47;5093337;28;20270;-73
2023/04/29 07:12:47;;;;;;;26.10;22.10;;;10.70;99.90;;;10.09;86.42;100844.31;5093485;28;20212;-73
2023/04/29 07:15:21;;;;;;;24.83;22.23;;;10.70;99.90;;;10.09;86.22;100855.84;5093233;28;20193;-73
2023/04/29 07:17:54;;;;;;;24.37;21.83;;;10.70;99.90;;;10.13;86.46;100867.94;5093224;28;20243;-73
2023/04/29 07:20:27;;;;;;;28.10;23.60;;;10.70;99.90;;;10.17;86.48;100873.84;5093576;28;20633;-72
2023/04/29 07:22:58;;;;;;;28.53;22.20;;;10.80;99.90;;;10.20;85.83;100872.69;5094364;28;20657;-73
2023/04/29 07:25:31;;;;;;;25.43;22.63;;;10.80;99.90;;;10.20;86.26;100886.91;5095895;28;20204;-72
2023/04/29 07:28:03;;;;;;;27.10;22.17;;;10.80;99.90;;;10.23;86.28;100883.94;5099402;28;20209;-72
2023/04/29 07:30:35;;;;;;;25.33;21.70;;;10.80;99.90;;;10.27;86.16;100896.00;5098804;28;20193;-73
2023/04/29 07:33:09;;;;;;;27.17;21.43;;;10.90;99.90;;;10.36;85.59;100896.91;5098510;28;20189;-73
2023/04/29 07:35:43;;;;;;;26.20;23.37;;;11.00;99.90;;;10.40;85.63;100904.47;5097368;28;20648;-72
2023/04/29 07:38:14;;;;;;;25.03;22.43;;;11.00;99.90;;;10.44;85.85;100907.69;5097051;28;20536;-74
2023/04/29 07:40:46;;;;;;;27.30;23.20;;;11.00;99.90;;;10.47;85.56;100910.88;5097360;28;20181;-74
2023/04/29 07:43:18;;;;;;;25.17;21.90;;;11.10;99.90;;;10.51;84.91;100909.56;5096728;28;20200;-74
2023/04/29 07:45:50;;;;;;;24.67;20.37;;;11.10;99.90;;;10.54;85.34;100909.28;5096643;28;20582;-74
2023/04/29 07:48:23;;;;;;;24.63;20.83;;;11.10;99.90;;;10.56;84.94;100923.31;5096775;28;20228;-74
2023/04/29 07:50:56;;;;;;;21.33;19.03;;;11.20;99.90;;;10.57;83.67;100919.66;5096868;28;20196;-74
2023/04/29 07:53:27;;;;;;;21.93;19.67;;;11.20;99.90;;;10.64;84.15;100926.06;5097114;28;20211;-74
2023/04/29 07:55:59;;;;;;;22.43;19.87;;;11.20;99.90;;;10.70;84.38;100929.94;5096823;28;20193;-74
2023/04/29 07:58:33;;;;;;;21.67;18.60;;;11.30;99.90;;;10.66;83.08;100941.97;5096563;28;20220;-74
2023/04/29 08:01:11;;;;;;;21.60;19.30;;;11.30;99.90;;;10.71;83.48;100937.00;5096666;28;20192;-74
2023/04/29 08:03:44;;;;;;;23.30;20.77;;;11.30;99.90;;;10.76;84.57;100934.69;5096602;28;20208;-74
2023/04/29 08:06:20;;;;;;;19.33;17.37;;;11.40;99.90;;;10.79;83.08;100936.22;5096579;28;20189;-73
2023/04/29 08:08:52;;;;;;;20.50;18.30;;;11.40;99.90;;;10.82;82.78;100946.63;5096352;28;20254;-74
2023/04/29 08:11:25;;;;;;;19.27;17.27;;;11.40;99.90;;;10.85;82.85;100943.63;5096143;28;20193;-73
2023/04/29 08:13:59;;;;;;;19.27;17.37;;;11.50;99.90;;;10.89;82.65;100951.16;5096120;28;20195;-74
2023/04/29 08:16:30;;;;;;;18.27;16.33;;;11.50;99.90;;;10.98;82.56;100952.91;5096456;28;20189;-74
2023/04/29 08:19:03;;;;;;;18.37;15.73;;;11.60;99.90;;;11.05;81.28;100955.81;5096275;28;20248;-74
2023/04/29 08:21:36;;;;;;;17.67;15.77;;;11.60;99.90;;;11.13;80.87;100967.41;5095982;28;20664;-74
2023/04/29 08:24:07;;;;;;;18.03;16.13;;;11.80;99.90;;;11.20;80.71;100972.97;5095972;28;20185;-74
2023/04/29 08:26:39;;;;;;;17.90;16.10;;;11.80;99.90;;;11.21;80.25;100963.94;5096191;28;20184;-74
2023/04/29 08:29:11;;;;;;;18.67;16.37;;;11.80;99.90;;;11.28;80.73;100966.81;5096270;28;20236;-73
2023/04/29 08:31:43;;;;;;;17.70;15.63;;;11.90;99.90;;;11.47;79.60;100962.06;5096164;28;20196;-74
2023/04/29 08:34:17;;;;;;;15.37;12.87;;;12.00;99.90;;;11.65;76.21;100970.84;5095705;28;20634;-73
2023/04/29 08:36:48;;;;;;;16.33;12.60;;;12.30;99.90;;;11.68;75.96;100967.84;5095826;28;20193;-73
2023/04/29 08:39:20;;;;;;;14.20;12.70;;;12.30;99.90;;;11.69;76.30;100972.22;5095935;28;20232;-74
2023/04/29 08:41:53;;;;;;;14.60;12.90;;;12.30;99.90;;;11.75;76.96;100984.16;5095996;28;20204;-73
2023/04/29 08:44:25;;;;;;;13.97;12.53;;;12.30;99.90;;;11.79;77.40;100984.69;5095865;28;20212;-74
2023/04/29 08:46:57;;;;;;;12.10;10.93;;;12.40;99.90;;;11.80;75.51;100978.31;5095499;28;20649;-73
2023/04/29 08:49:32;;;;;;;12.27;10.47;;;12.40;99.90;;;11.84;75.21;100979.69;5095635;28;20228;-74
2023/04/29 08:52:06;;;;;;;13.37;11.60;;;12.40;99.90;;;11.85;75.32;100984.06;5095439;28;20637;-73
2023/04/29 08:54:38;;;;;;;10.97;9.77;;;12.50;99.90;;;11.87;74.18;100984.72;5095384;28;20646;-74
2023/04/29 08:57:13;;;;;;;11.77;10.50;;;12.50;99.90;;;11.87;72.55;100993.63;5095649;28;20208;-73
2023/04/29 08:59:45;;;;;;;11.17;9.57;;;12.50;99.70;;;11.92;73.45;100993.09;5095180;28;20228;-73
2023/04/29 09:02:21;;;;;;;12.43;9.70;;;12.50;99.90;;;11.94;74.23;100996.47;5095483;28;20189;-73
2023/04/29 09:05:08;;;;;;;12.10;10.10;;;12.50;99.90;;;12.00;74.34;100993.97;5095474;28;20189;-74
2023/04/29 09:07:41;;;;;;;10.70;9.60;;;12.60;99.90;;;12.04;75.32;100998.03;5095446;28;20196;-73
2023/04/29 09:10:15;;;;;;;11.63;10.43;;;12.60;99.90;;;12.10;75.58;101001.88;5095179;28;20239;-74
2023/04/29 09:12:47;;;;;;;11.23;10.13;;;12.70;99.90;;;12.13;75.82;101001.56;5095307;28;20200;-73
2023/04/29 09:15:19;;;;;;;11.63;10.43;;;12.70;99.90;;;12.12;74.34;101002.59;5095195;28;20208;-73
2023/04/29 09:17:52;;;;;;;12.30;10.97;;;12.70;99.90;;;12.13;74.45;101004.25;5094894;28;20680;-73
2023/04/29 09:20:32;;;;;;;10.63;9.53;;;12.70;99.90;;;12.13;73.46;101013.13;5095165;28;20553;-73
2023/04/29 09:23:05;;;;;;;10.60;9.20;;;12.70;99.90;;;12.20;73.64;101021.38;5095079;28;20189;-73
2023/04/29 09:25:37;;;;;;;12.57;10.80;;;12.80;99.90;;;12.27;73.27;101025.09;5095046;28;20200;-74
2023/04/29 09:28:18;;;;;;;12.20;10.07;;;12.80;99.90;;;12.32;73.35;101032.66;5094708;28;20556;-74
2023/04/29 09:30:50;;;;;;;11.80;10.60;;;12.90;99.90;;;12.34;73.18;101020.72;5095107;28;20209;-73
2023/04/29 09:33:22;;;;;;;11.90;9.83;;;12.90;99.90;;;12.41;72.46;101031.66;5094653;28;20204;-73
2023/04/29 09:35:55;;;;;;;11.00;9.57;;;12.90;99.90;;;12.47;70.87;101029.16;5094617;28;20634;-74
2023/04/29 09:38:27;;;;;;;9.93;9.00;;;13.00;99.10;;;12.57;69.36;101032.50;5094952;28;20274;-73
2023/04/29 09:40:59;;;;;;;12.83;9.07;;;13.10;99.00;;;12.57;69.14;101029.84;5094899;28;20185;-73
2023/04/29 09:43:32;;;;;;;11.53;8.53;;;13.10;98.20;;;12.48;68.74;101033.53;5094738;28;20216;-73
2023/04/29 09:46:04;;;;;;;11.90;9.13;;;13.00;97.80;;;12.49;71.14;101032.53;5094678;28;20193;-73
2023/04/29 09:48:37;;;;;;;11.43;9.90;;;13.10;98.90;;;12.54;70.39;101032.00;5094025;28;20319;-73
2023/04/29 09:51:10;;;;;;;12.20;10.33;;;13.10;98.90;;;12.57;71.01;101037.03;5094487;28;20212;-73
2023/04/29 09:53:42;;;;;;;11.30;9.87;;;13.10;98.70;;;12.59;71.05;101040.41;5094251;28;20606;-73
2023/04/29 09:56:14;;;;;;;10.13;9.00;;;13.10;98.80;;;12.58;68.48;101044.09;5094157;28;20193;-73
2023/04/29 09:58:46;;;;;;;11.70;9.13;;;13.20;98.00;;;12.59;68.42;101051.16;5093924;28;20626;-73
2023/04/29 10:01:20;;;;;;;10.63;9.03;;;13.10;97.60;;;12.54;67.65;101046.28;5094359;28;20186;-73
2023/04/29 10:03:55;;;;;;;10.60;9.17;;;13.10;97.60;;;12.58;69.16;101054.84;5094499;28;20212;-73
2023/04/29 10:06:28;;;;;;;12.67;9.20;;;13.10;98.10;;;12.56;69.30;101059.56;5094387;28;20200;-73
2023/04/29 10:09:00;;;;;;;12.13;9.63;;;13.10;98.10;;;12.49;68.77;101062.06;5094119;28;20225;-72
2023/04/29 10:11:32;;;;;;;11.17;9.97;;;13.00;97.60;;;12.52;69.14;101064.41;5093890;28;20645;-72
2023/04/29 10:14:07;;;;;;;12.63;9.50;;;13.10;98.20;;;12.55;69.05;101058.72;5094161;28;20185;-72
2023/04/29 10:16:48;;;;;;;11.73;9.83;;;13.10;98.00;;;12.60;69.25;101063.59;5094160;28;20200;-72
2023/04/29 10:19:38;;;;;;;12.23;9.13;;;13.20;98.10;;;12.60;67.45;101064.41;5093555;28;20225;-74
2023/04/29 10:22:19;;;;;;;12.57;9.40;;;13.10;97.20;;;12.64;68.77;101064.91;5093747;28;20188;-74
2023/04/29 10:24:53;;;;;;;10.77;9.63;;;13.20;97.70;;;12.71;69.17;101065.94;5093938;28;20189;-74
2023/04/29 10:27:29;;;;;;;13.10;10.33;;;13.20;98.20;;;12.76;68.88;101062.75;5094338;28;20204;-73